Avoca, Iowa
Current Conditions -  °F | °C
As of 12:35 PM on Wednesday 26 Nov 2014 (Local Time) from KHNR Reporting Station
Unknown Precip Unknown Precip  
Wind Chill: 17°   Ceiling: 1100
Heat Index: 30°   Visibility: 10mi
Dew Point: 28°   Wind: 22mph
Humidity: 93%   Direction: 350°N
Pressure: 30.09"   Gusts: 31mph
Location:  41.48°N, 95.34°W
Report Text: KHNR 261835Z AUTO 35019G27KT 10SM -UP OVC011 M01/M02 A3009 RMK AO2
Loading
Personal Weather Stations






























Interactive Weather Map New forecast layout! Learn more

10-Day Weather Forecast

Advertisements
Track Severe Weather on mobile